createdAt,value
2023-05-24T00:02:14.586Z,15.49
2023-05-24T00:05:01.888Z,15.57
2023-05-24T00:07:48.792Z,15.50
2023-05-24T00:10:35.685Z,15.40
2023-05-24T00:13:22.624Z,15.40
2023-05-24T00:16:09.722Z,15.40
2023-05-24T00:18:58.243Z,15.35
2023-05-24T00:21:46.064Z,15.25
2023-05-24T00:24:33.041Z,15.27
2023-05-24T00:27:20.079Z,15.27
2023-05-24T00:30:07.615Z,15.31
2023-05-24T00:32:54.607Z,15.39
2023-05-24T00:35:41.451Z,15.37
2023-05-24T00:38:28.866Z,15.33
2023-05-24T00:41:15.839Z,15.40
2023-05-24T00:44:03.093Z,15.38
2023-05-24T00:46:50.286Z,15.32
2023-05-24T00:49:37.218Z,15.38
2023-05-24T00:52:24.263Z,15.32
2023-05-24T00:55:11.322Z,15.28
2023-05-24T00:57:58.302Z,15.28
2023-05-24T01:00:49.758Z,15.34
2023-05-24T01:03:36.840Z,15.19
2023-05-24T01:06:27.145Z,15.12
2023-05-24T01:09:25.868Z,15.12
2023-05-24T01:12:38.500Z,15.13
2023-05-24T01:15:42.002Z,15.08
2023-05-24T01:18:34.996Z,15.04
2023-05-24T01:21:48.480Z,14.99
2023-05-24T01:25:03.639Z,14.98
2023-05-24T01:27:51.103Z,15.04
2023-05-24T01:30:40.749Z,15.00
2023-05-24T01:33:28.153Z,15.06
2023-05-24T01:36:15.076Z,15.00
2023-05-24T01:39:02.078Z,14.97
2023-05-24T01:41:59.570Z,15.02
2023-05-24T01:44:55.342Z,15.00
2023-05-24T01:48:00.331Z,15.01
2023-05-24T01:50:57.858Z,14.99
2023-05-24T01:53:47.716Z,15.03
2023-05-24T01:56:37.003Z,15.06
2023-05-24T01:59:26.088Z,15.10
2023-05-24T02:02:13.619Z,15.05
2023-05-24T02:05:00.528Z,14.88
2023-05-24T02:07:47.417Z,14.87
2023-05-24T02:10:34.367Z,14.89
2023-05-24T02:13:21.469Z,14.84
2023-05-24T02:16:08.520Z,14.86
2023-05-24T02:18:55.494Z,14.82
2023-05-24T02:21:42.416Z,14.81
2023-05-24T02:24:29.364Z,14.78
2023-05-24T02:27:16.303Z,14.78
2023-05-24T02:30:03.368Z,14.87
2023-05-24T02:32:50.339Z,14.87
2023-05-24T02:35:37.242Z,14.87
2023-05-24T02:38:24.154Z,14.84
2023-05-24T02:41:11.952Z,14.84
2023-05-24T02:43:58.845Z,14.91
2023-05-24T02:46:45.823Z,14.90
2023-05-24T02:49:32.770Z,14.91
2023-05-24T02:52:22.824Z,14.93
2023-05-24T02:55:10.002Z,14.96
2023-05-24T02:57:57.434Z,14.90
2023-05-24T03:00:44.692Z,14.91
2023-05-24T03:03:31.698Z,14.90
2023-05-24T03:06:18.712Z,14.92
2023-05-24T03:09:05.804Z,14.80
2023-05-24T03:11:54.520Z,14.80
2023-05-24T03:14:41.608Z,14.80
2023-05-24T03:17:28.667Z,14.81
2023-05-24T03:20:16.025Z,14.76
2023-05-24T03:23:03.177Z,14.76
2023-05-24T03:25:50.048Z,14.81
2023-05-24T03:28:36.921Z,14.80
2023-05-24T03:31:26.589Z,14.75
2023-05-24T03:34:13.596Z,14.77
2023-05-24T03:37:00.571Z,14.78
2023-05-24T03:39:47.527Z,14.78
2023-05-24T03:42:34.399Z,14.79
2023-05-24T03:45:34.429Z,14.80
2023-05-24T03:48:25.792Z,14.84
2023-05-24T03:51:12.693Z,14.85
2023-05-24T03:53:59.615Z,14.80
2023-05-24T03:56:46.681Z,14.82
2023-05-24T03:59:33.623Z,14.78
2023-05-24T04:02:20.577Z,14.78
2023-05-24T04:05:10.135Z,14.76
2023-05-24T04:07:57.079Z,14.74
2023-05-24T04:10:44.259Z,14.71
2023-05-24T04:13:31.386Z,14.72
2023-05-24T04:16:18.409Z,14.67
2023-05-24T04:19:05.792Z,14.73
2023-05-24T04:21:52.655Z,14.40
2023-05-24T04:24:39.589Z,14.48
2023-05-24T04:27:27.034Z,14.35
2023-05-24T04:30:16.006Z,14.34
2023-05-24T04:33:03.747Z,14.29
2023-05-24T04:35:50.870Z,14.32
2023-05-24T04:38:38.785Z,14.34
2023-05-24T04:41:28.260Z,14.09
2023-05-24T04:44:15.119Z,14.18
2023-05-24T04:47:03.916Z,14.23
2023-05-24T04:49:50.995Z,14.25
2023-05-24T04:52:37.899Z,14.19
2023-05-24T04:55:24.743Z,14.17
2023-05-24T04:58:11.820Z,14.18
2023-05-24T05:00:58.687Z,14.20
2023-05-24T05:03:46.269Z,14.28
2023-05-24T05:06:35.030Z,14.38
2023-05-24T05:09:22.700Z,14.42
2023-05-24T05:12:09.555Z,14.45
2023-05-24T05:14:56.663Z,14.37
2023-05-24T05:17:43.664Z,14.36
2023-05-24T05:20:30.607Z,14.31
2023-05-24T05:23:17.487Z,14.25
2023-05-24T05:26:04.479Z,14.31
2023-05-24T05:28:51.323Z,14.36
2023-05-24T05:31:39.619Z,14.34
2023-05-24T05:34:26.503Z,14.24
2023-05-24T05:37:13.504Z,14.15
2023-05-24T05:40:00.406Z,14.06
2023-05-24T05:42:47.657Z,14.03
2023-05-24T05:45:34.627Z,14.04
2023-05-24T05:48:22.013Z,14.05
2023-05-24T05:51:09.223Z,13.89
2023-05-24T05:53:56.345Z,13.96
2023-05-24T05:56:45.843Z,14.01
2023-05-24T05:59:35.995Z,14.07
2023-05-24T06:02:23.112Z,14.00
2023-05-24T06:05:10.134Z,14.07
2023-05-24T06:07:56.978Z,14.02
2023-05-24T06:10:44.132Z,14.04
2023-05-24T06:13:32.931Z,14.10
2023-05-24T06:16:21.261Z,14.31
2023-05-24T06:19:08.154Z,14.11
2023-05-24T06:21:55.133Z,14.03
2023-05-24T06:24:42.029Z,13.97
2023-05-24T06:27:28.871Z,14.08
2023-05-24T06:30:16.007Z,14.11
2023-05-24T06:33:03.434Z,14.22
2023-05-24T06:35:50.581Z,14.15
2023-05-24T06:38:37.484Z,14.41
2023-05-24T06:41:24.349Z,14.50
2023-05-24T06:44:11.248Z,14.62
2023-05-24T06:46:58.172Z,14.77
2023-05-24T06:49:45.125Z,14.75
2023-05-24T06:52:32.008Z,14.73
2023-05-24T06:55:19.753Z,14.69
2023-05-24T06:58:07.059Z,14.66
2023-05-24T07:00:54.244Z,14.63
2023-05-24T07:03:41.401Z,14.51
2023-05-24T07:06:28.404Z,14.47
2023-05-24T07:09:15.956Z,14.42
2023-05-24T07:12:02.935Z,14.51
2023-05-24T07:14:49.888Z,14.72
2023-05-24T07:17:37.128Z,14.78
2023-05-24T07:20:24.043Z,14.72
2023-05-24T07:23:10.996Z,14.48
2023-05-24T07:25:57.839Z,14.39
2023-05-24T07:28:44.745Z,14.34
2023-05-24T07:31:34.772Z,14.38
2023-05-24T07:34:22.421Z,14.41
2023-05-24T07:37:09.329Z,14.41
2023-05-24T07:39:56.603Z,14.54
2023-05-24T07:42:43.590Z,14.60
2023-05-24T07:45:31.185Z,14.67
2023-05-24T07:48:18.279Z,14.77
2023-05-24T07:51:06.186Z,14.64
2023-05-24T07:53:53.048Z,14.61
2023-05-24T07:56:41.695Z,14.56
2023-05-24T07:59:29.411Z,14.54
2023-05-24T08:02:16.906Z,14.53
2023-05-24T08:05:05.120Z,14.59
2023-05-24T08:07:55.480Z,14.67
2023-05-24T08:10:42.355Z,14.81
2023-05-24T08:13:29.225Z,15.09
2023-05-24T08:16:16.231Z,15.01
2023-05-24T08:19:03.360Z,14.89
2023-05-24T08:21:50.323Z,15.10
2023-05-24T08:24:37.135Z,15.14
2023-05-24T08:27:24.110Z,15.35
2023-05-24T08:30:11.409Z,15.44
2023-05-24T08:32:58.504Z,15.56
2023-05-24T08:35:45.444Z,15.68
2023-05-24T08:38:32.423Z,15.64
2023-05-24T08:41:19.319Z,15.75
2023-05-24T08:44:07.667Z,15.88
2023-05-24T08:46:56.340Z,16.07
2023-05-24T08:49:43.394Z,16.24
2023-05-24T08:52:32.244Z,16.26
2023-05-24T08:55:19.870Z,16.37
2023-05-24T08:58:07.552Z,16.51
2023-05-24T09:00:54.435Z,16.86
2023-05-24T09:03:42.494Z,17.05
2023-05-24T09:06:29.633Z,17.13
2023-05-24T09:09:21.425Z,17.41
2023-05-24T09:12:09.923Z,17.75
2023-05-24T09:14:57.530Z,17.96
2023-05-24T09:17:44.621Z,17.98
2023-05-24T09:20:31.531Z,18.07
2023-05-24T09:23:19.030Z,17.91
2023-05-24T09:26:10.169Z,17.70
2023-05-24T09:28:57.780Z,17.08
2023-05-24T09:31:44.704Z,17.16
2023-05-24T09:34:39.857Z,17.21
2023-05-24T09:37:32.112Z,17.36
2023-05-24T09:40:20.929Z,17.52
2023-05-24T09:43:10.087Z,17.78
2023-05-24T09:45:58.122Z,17.80
2023-05-24T09:48:58.544Z,18.01
2023-05-24T09:51:46.035Z,18.26
2023-05-24T09:54:33.604Z,18.64
2023-05-24T09:57:22.819Z,18.76
2023-05-24T10:00:16.717Z,19.10
2023-05-24T10:03:07.429Z,19.38
2023-05-24T10:05:55.667Z,19.52
2023-05-24T10:08:42.751Z,19.74
2023-05-24T10:11:29.689Z,19.90
2023-05-24T10:14:18.117Z,20.02
2023-05-24T10:17:06.406Z,20.10
2023-05-24T10:19:54.909Z,19.94
2023-05-24T10:22:45.981Z,20.03
2023-05-24T10:25:35.114Z,19.81
2023-05-24T10:28:24.266Z,20.07
2023-05-24T10:31:15.780Z,20.07
2023-05-24T10:34:08.505Z,19.77
2023-05-24T10:36:55.849Z,19.54
2023-05-24T10:39:43.003Z,19.81
2023-05-24T10:42:32.318Z,19.93
2023-05-24T10:45:25.056Z,20.07
2023-05-24T10:48:15.488Z,20.01
2023-05-24T10:51:33.132Z,19.75
2023-05-24T10:54:24.976Z,19.78
2023-05-24T10:57:12.145Z,19.82
2023-05-24T11:00:47.257Z,19.86
2023-05-24T11:03:35.031Z,20.06
2023-05-24T11:06:58.038Z,19.89
2023-05-24T11:09:48.924Z,19.59
2023-05-24T11:12:38.899Z,19.50
2023-05-24T11:15:26.537Z,19.32
2023-05-24T11:18:14.417Z,19.45
2023-05-24T11:21:03.795Z,19.41
2023-05-24T11:23:52.313Z,19.39
2023-05-24T11:26:40.256Z,19.59
2023-05-24T11:29:27.310Z,19.78
2023-05-24T11:32:19.459Z,19.95
2023-05-24T11:35:08.946Z,20.21
2023-05-24T11:37:57.754Z,19.92
2023-05-24T11:40:47.148Z,19.71
2023-05-24T11:43:34.087Z,19.75
2023-05-24T11:46:21.285Z,19.67
2023-05-24T11:49:15.765Z,19.77
2023-05-24T11:52:03.210Z,19.63
2023-05-24T11:54:50.556Z,19.76
2023-05-24T11:57:41.170Z,19.89
2023-05-24T12:00:28.512Z,19.80
2023-05-24T12:03:17.161Z,19.91
2023-05-24T12:06:04.195Z,20.04
2023-05-24T12:08:51.200Z,20.15
2023-05-24T12:11:39.932Z,20.00
2023-05-24T12:14:31.456Z,20.28
2023-05-24T12:17:18.533Z,20.28
2023-05-24T12:20:09.044Z,20.41
2023-05-24T12:22:56.279Z,20.31
2023-05-24T12:25:44.236Z,20.25
2023-05-24T12:28:38.915Z,20.27
2023-05-24T12:31:26.893Z,20.36
2023-05-24T12:34:16.542Z,20.39
2023-05-24T12:37:03.935Z,20.58
2023-05-24T12:39:52.423Z,20.61
2023-05-24T12:42:41.348Z,20.77
2023-05-24T12:45:28.356Z,20.91
2023-05-24T12:48:15.251Z,20.97
2023-05-24T12:51:03.975Z,21.23
2023-05-24T12:53:50.830Z,21.19
2023-05-24T12:56:38.180Z,20.96
2023-05-24T12:59:27.423Z,20.95
2023-05-24T13:02:14.545Z,20.70
2023-05-24T13:05:01.558Z,20.39
2023-05-24T13:07:49.897Z,20.03
2023-05-24T13:10:37.209Z,19.91
2023-05-24T13:13:24.398Z,19.93
2023-05-24T13:16:11.936Z,19.96
2023-05-24T13:18:58.899Z,20.02
2023-05-24T13:21:45.832Z,20.12
2023-05-24T13:24:32.757Z,20.09
2023-05-24T13:27:19.620Z,20.16
2023-05-24T13:30:07.657Z,19.83
2023-05-24T13:32:55.811Z,19.88
2023-05-24T13:35:43.271Z,19.91
2023-05-24T13:38:30.311Z,19.71
2023-05-24T13:41:17.206Z,19.77
2023-05-24T13:44:04.331Z,19.80
2023-05-24T13:46:51.336Z,19.79
2023-05-24T13:49:38.193Z,19.74
2023-05-24T13:52:26.246Z,19.69
2023-05-24T13:55:13.454Z,19.37
2023-05-24T13:58:01.751Z,19.32
2023-05-24T14:00:48.688Z,19.46
2023-05-24T14:03:35.578Z,19.46
2023-05-24T14:06:25.392Z,19.55
2023-05-24T14:09:12.331Z,19.46
2023-05-24T14:11:59.287Z,19.45
2023-05-24T14:17:36.365Z,19.30
2023-05-24T14:20:23.317Z,19.25
2023-05-24T14:23:10.578Z,19.17
2023-05-24T14:25:58.154Z,19.14
2023-05-24T14:28:45.016Z,19.05
2023-05-24T14:31:33.606Z,18.95
2023-05-24T14:34:20.619Z,18.81
2023-05-24T14:37:07.571Z,18.76
2023-05-24T14:39:55.134Z,18.67
2023-05-24T14:42:42.076Z,18.67
2023-05-24T14:45:28.953Z,18.57
2023-05-24T14:48:16.700Z,18.56
2023-05-24T14:51:03.713Z,18.52
2023-05-24T14:53:50.676Z,18.63
2023-05-24T14:56:38.097Z,18.55
2023-05-24T14:59:25.258Z,18.51
2023-05-24T15:02:12.593Z,18.41
2023-05-24T15:04:59.978Z,18.31
2023-05-24T15:07:47.252Z,18.18
2023-05-24T15:10:34.312Z,17.95
2023-05-24T15:13:22.970Z,17.96
2023-05-24T15:16:09.982Z,17.92
2023-05-24T15:18:56.955Z,17.78
2023-05-24T15:21:43.827Z,17.62
2023-05-24T15:24:30.670Z,17.63
2023-05-24T15:27:17.596Z,17.60
2023-05-24T15:30:05.028Z,17.62
2023-05-24T15:32:52.021Z,17.56
2023-05-24T15:35:38.918Z,17.47
2023-05-24T15:38:25.832Z,17.53
2023-05-24T15:41:12.746Z,17.53
2023-05-24T15:44:00.884Z,17.44
2023-05-24T15:46:47.802Z,17.37
2023-05-24T15:49:34.788Z,17.23
2023-05-24T15:52:22.170Z,17.24
2023-05-24T15:55:09.611Z,17.30
2023-05-24T15:57:57.798Z,17.18
2023-05-24T16:00:45.060Z,17.18
2023-05-24T16:03:32.330Z,17.22
2023-05-24T16:06:19.322Z,17.09
2023-05-24T16:09:07.082Z,17.12
2023-05-24T16:11:54.321Z,17.14
2023-05-24T16:14:41.367Z,17.12
2023-05-24T16:17:28.394Z,16.94
2023-05-24T16:20:15.304Z,16.89
2023-05-24T16:23:03.705Z,17.03
2023-05-24T16:25:51.365Z,17.15
2023-05-24T16:28:38.299Z,17.20
2023-05-24T16:31:25.714Z,17.19
2023-05-24T16:34:12.747Z,17.05
2023-05-24T16:36:59.833Z,16.96
2023-05-24T16:39:46.751Z,16.94
2023-05-24T16:42:33.670Z,16.78
2023-05-24T16:45:20.908Z,16.89
2023-05-24T16:48:07.870Z,16.83
2023-05-24T16:50:56.812Z,16.89
2023-05-24T16:53:43.718Z,16.79
2023-05-24T16:56:30.598Z,16.68
2023-05-24T16:59:17.477Z,16.58
2023-05-24T17:02:05.011Z,16.64
2023-05-24T17:04:52.296Z,16.59
2023-05-24T17:07:39.496Z,16.61
2023-05-24T17:10:26.361Z,16.77
2023-05-24T17:13:13.300Z,16.75
2023-05-24T17:16:00.695Z,16.66
2023-05-24T17:18:47.841Z,16.69
2023-05-24T17:21:34.730Z,16.64
2023-05-24T17:24:22.532Z,16.52
2023-05-24T17:27:12.633Z,16.53
2023-05-24T17:29:59.500Z,16.56
2023-05-24T17:32:46.455Z,16.56
2023-05-24T17:35:33.341Z,16.48
2023-05-24T17:38:20.219Z,16.31
2023-05-24T17:41:10.139Z,16.41
2023-05-24T17:43:57.107Z,16.31
2023-05-24T17:46:44.165Z,15.71
2023-05-24T17:49:32.379Z,15.49
2023-05-24T17:52:19.959Z,15.40
2023-05-24T17:55:07.629Z,15.34
2023-05-24T17:57:54.878Z,15.26
2023-05-24T18:00:41.722Z,15.21
2023-05-24T18:03:28.638Z,15.13
2023-05-24T18:06:15.697Z,15.06
2023-05-24T18:09:02.581Z,14.94
2023-05-24T18:11:49.759Z,14.77
2023-05-24T18:14:39.096Z,14.85
2023-05-24T18:17:27.358Z,14.67
2023-05-24T18:20:15.320Z,14.73
2023-05-24T18:23:02.991Z,14.69
2023-05-24T18:25:49.956Z,14.69
2023-05-24T18:28:38.413Z,14.59
2023-05-24T18:31:25.333Z,14.52
2023-05-24T18:34:12.430Z,14.58
2023-05-24T18:36:59.392Z,14.61
2023-05-24T18:39:46.398Z,14.55
2023-05-24T18:42:33.307Z,14.47
2023-05-24T18:45:20.202Z,14.35
2023-05-24T18:48:07.934Z,14.35
2023-05-24T18:50:55.099Z,14.33
2023-05-24T18:53:42.168Z,14.29
2023-05-24T18:56:29.484Z,14.26
2023-05-24T18:59:21.588Z,14.14
2023-05-24T19:02:08.551Z,14.11
2023-05-24T19:04:55.511Z,14.26
2023-05-24T19:07:42.374Z,14.31
2023-05-24T19:10:29.603Z,14.35
2023-05-24T19:13:17.000Z,14.42
2023-05-24T19:16:04.024Z,14.28
2023-05-24T19:18:50.949Z,14.08
2023-05-24T19:21:39.294Z,14.03
2023-05-24T19:24:26.306Z,13.98
2023-05-24T19:27:13.601Z,14.10
2023-05-24T19:30:00.467Z,14.07
2023-05-24T19:32:47.487Z,14.09
2023-05-24T19:35:34.884Z,14.04
2023-05-24T19:38:22.130Z,13.96
2023-05-24T19:41:09.251Z,13.95
2023-05-24T19:43:58.680Z,14.00
2023-05-24T19:46:45.671Z,14.07
2023-05-24T19:49:32.714Z,14.08
2023-05-24T19:52:21.248Z,13.95
2023-05-24T19:55:08.685Z,13.92
2023-05-24T19:57:55.684Z,13.88
2023-05-24T20:00:42.614Z,13.87
2023-05-24T20:03:29.774Z,13.89
2023-05-24T20:06:17.199Z,13.84
2023-05-24T20:09:04.547Z,13.73
2023-05-24T20:11:51.437Z,13.66
2023-05-24T20:14:38.346Z,13.75
2023-05-24T20:17:25.505Z,13.65
2023-05-24T20:20:12.513Z,13.61
2023-05-24T20:22:59.502Z,13.67
2023-05-24T20:25:46.691Z,13.66
2023-05-24T20:28:33.637Z,13.63
2023-05-24T20:31:20.571Z,13.60
2023-05-24T20:34:07.521Z,13.47
2023-05-24T20:36:54.392Z,13.53
2023-05-24T20:39:41.250Z,13.53
2023-05-24T20:42:28.103Z,13.50
2023-05-24T20:45:15.027Z,13.53
2023-05-24T20:48:02.093Z,13.54
2023-05-24T20:50:49.117Z,13.57
2023-05-24T20:53:36.983Z,13.57
2023-05-24T20:56:24.551Z,13.47
2023-05-24T20:59:11.647Z,13.56
2023-05-24T21:01:58.693Z,13.52
2023-05-24T21:04:45.687Z,13.63
2023-05-24T21:07:32.652Z,13.64
2023-05-24T21:10:20.007Z,13.62
2023-05-24T21:13:07.089Z,13.67
2023-05-24T21:15:54.331Z,13.65
2023-05-24T21:18:41.491Z,13.59
2023-05-24T21:21:28.457Z,13.56
2023-05-24T21:24:16.270Z,13.59
2023-05-24T21:27:03.201Z,13.60
2023-05-24T21:29:50.102Z,13.61
2023-05-24T21:32:36.963Z,13.57
2023-05-24T21:35:23.917Z,13.65
2023-05-24T21:38:10.969Z,13.62
2023-05-24T21:40:57.875Z,13.58
2023-05-24T21:43:44.754Z,13.59
2023-05-24T21:46:33.611Z,13.60
2023-05-24T21:49:21.413Z,13.60
2023-05-24T21:52:08.398Z,13.59
2023-05-24T21:54:55.498Z,13.62
2023-05-24T21:57:42.401Z,13.58
2023-05-24T22:00:29.248Z,13.61
2023-05-24T22:03:16.224Z,13.55
2023-05-24T22:06:03.205Z,13.48
2023-05-24T22:08:50.096Z,13.46
2023-05-24T22:11:37.058Z,13.62
2023-05-24T22:14:24.044Z,13.60
2023-05-24T22:17:11.296Z,13.60
2023-05-24T22:20:06.887Z,13.50
2023-05-24T22:22:53.841Z,13.50
2023-05-24T22:25:41.599Z,13.52
2023-05-24T22:28:28.978Z,13.58
2023-05-24T22:31:15.976Z,13.59
2023-05-24T22:34:03.127Z,13.65
2023-05-24T22:36:50.048Z,13.68
2023-05-24T22:39:37.012Z,13.68
2023-05-24T22:42:24.096Z,13.68
2023-05-24T22:45:12.019Z,13.70
2023-05-24T22:47:58.973Z,13.74
2023-05-24T22:50:45.841Z,13.71
2023-05-24T22:53:32.782Z,13.57
2023-05-24T22:56:19.707Z,13.54
2023-05-24T22:59:07.480Z,13.66
2023-05-24T23:01:54.435Z,13.60
2023-05-24T23:04:41.656Z,13.55
2023-05-24T23:07:28.704Z,13.57
2023-05-24T23:10:15.695Z,13.60
2023-05-24T23:13:04.156Z,13.59
2023-05-24T23:15:51.571Z,13.59
2023-05-24T23:18:42.854Z,13.69
2023-05-24T23:21:29.729Z,13.59
2023-05-24T23:24:16.579Z,13.54
2023-05-24T23:27:06.915Z,13.49
2023-05-24T23:29:53.788Z,13.59
2023-05-24T23:32:40.766Z,13.53
2023-05-24T23:35:27.699Z,13.41
2023-05-24T23:38:15.508Z,13.49
2023-05-24T23:41:02.368Z,13.45
2023-05-24T23:43:49.344Z,13.45
2023-05-24T23:46:36.407Z,13.48
2023-05-24T23:49:24.618Z,13.46
2023-05-24T23:52:12.362Z,13.47
2023-05-24T23:54:59.222Z,13.37
2023-05-24T23:57:47.604Z,13.34
